sensor_id;sensor_type;location;lat;lon;timestamp;pressure;altitude;pressure_sealevel;temperature;humidity
38530;BME280;24301;54.332;48.386;2023-04-05T00:00:10;99003.31;;;11.39;50.16
38530;BME280;24301;54.332;48.386;2023-04-05T00:02:36;98990.16;;;11.37;50.05
38530;BME280;24301;54.332;48.386;2023-04-05T00:05:06;98996.31;;;11.36;50.33
38530;BME280;24301;54.332;48.386;2023-04-05T00:07:33;98991.16;;;11.30;50.61
38530;BME280;24301;54.332;48.386;2023-04-05T00:10:00;98990.28;;;11.31;50.64
38530;BME280;24301;54.332;48.386;2023-04-05T00:12:26;98999.97;;;11.29;50.96
38530;BME280;24301;54.332;48.386;2023-04-05T00:14:51;98999.13;;;11.27;50.95
38530;BME280;24301;54.332;48.386;2023-04-05T00:17:17;98987.78;;;11.23;51.02
38530;BME280;24301;54.332;48.386;2023-04-05T00:19:43;98984.34;;;11.18;51.28
38530;BME280;24301;54.332;48.386;2023-04-05T00:22:09;99001.88;;;11.19;50.87
38530;BME280;24301;54.332;48.386;2023-04-05T00:24:36;99006.31;;;11.15;51.58
38530;BME280;24301;54.332;48.386;2023-04-05T00:27:06;99006.41;;;11.09;51.46
38530;BME280;24301;54.332;48.386;2023-04-05T00:29:32;99009.22;;;10.97;51.89
38530;BME280;24301;54.332;48.386;2023-04-05T00:31:58;99001.59;;;10.81;52.32
38530;BME280;24301;54.332;48.386;2023-04-05T00:34:24;99002.59;;;10.74;52.98
38530;BME280;24301;54.332;48.386;2023-04-05T00:36:50;99004.38;;;10.69;53.48
38530;BME280;24301;54.332;48.386;2023-04-05T00:39:16;99008.84;;;10.63;53.55
38530;BME280;24301;54.332;48.386;2023-04-05T00:41:42;99012.38;;;10.62;53.89
38530;BME280;24301;54.332;48.386;2023-04-05T00:44:09;99010.69;;;10.58;54.03
38530;BME280;24301;54.332;48.386;2023-04-05T00:46:37;99004.56;;;10.56;53.97
38530;BME280;24301;54.332;48.386;2023-04-05T00:49:03;99010.69;;;10.58;54.01
38530;BME280;24301;54.332;48.386;2023-04-05T00:51:30;99004.53;;;10.58;53.84
38530;BME280;24301;54.332;48.386;2023-04-05T00:53:59;99001.94;;;10.56;53.86
38530;BME280;24301;54.332;48.386;2023-04-05T00:56:25;99001.91;;;10.59;53.91
38530;BME280;24301;54.332;48.386;2023-04-05T00:58:52;98997.47;;;10.63;53.90
38530;BME280;24301;54.332;48.386;2023-04-05T01:01:19;99005.38;;;10.63;54.15
38530;BME280;24301;54.332;48.386;2023-04-05T01:03:56;99005.31;;;10.64;54.02
38530;BME280;24301;54.332;48.386;2023-04-05T01:12:08;99006.50;;;10.43;54.92
38530;BME280;24301;54.332;48.386;2023-04-05T01:14:49;99004.78;;;10.39;55.38
38530;BME280;24301;54.332;48.386;2023-04-05T01:17:23;98990.94;;;10.26;55.02
38530;BME280;24301;54.332;48.386;2023-04-05T01:19:58;99000.59;;;10.24;55.38
38530;BME280;24301;54.332;48.386;2023-04-05T01:22:57;98998.88;;;10.20;55.69
38530;BME280;24301;54.332;48.386;2023-04-05T01:25:48;98993.78;;;10.07;56.15
38530;BME280;24301;54.332;48.386;2023-04-05T01:28:35;98995.59;;;10.02;56.20
38530;BME280;24301;54.332;48.386;2023-04-05T01:34:01;98995.81;;;9.84;56.71
38530;BME280;24301;54.332;48.386;2023-04-05T01:36:37;98989.00;;;9.66;56.80
38530;BME280;24301;54.332;48.386;2023-04-05T01:39:04;98992.56;;;9.61;56.40
38530;BME280;24301;54.332;48.386;2023-04-05T01:41:33;98990.91;;;9.53;56.74
38530;BME280;24301;54.332;48.386;2023-04-05T01:43:59;98990.91;;;9.51;56.95
38530;BME280;24301;54.332;48.386;2023-04-05T01:46:26;98987.47;;;9.44;56.82
38530;BME280;24301;54.332;48.386;2023-04-05T01:48:52;98986.72;;;9.33;57.18
38530;BME280;24301;54.332;48.386;2023-04-05T01:51:18;98993.69;;;9.34;57.29
38530;BME280;24301;54.332;48.386;2023-04-05T01:53:45;98987.59;;;9.32;57.58
38530;BME280;24301;54.332;48.386;2023-04-05T01:56:13;98992.88;;;9.29;57.72
38530;BME280;24301;54.332;48.386;2023-04-05T01:58:39;98993.81;;;9.20;57.75
38530;BME280;24301;54.332;48.386;2023-04-05T02:01:06;98992.94;;;9.21;57.95
38530;BME280;24301;54.332;48.386;2023-04-05T02:03:31;98992.03;;;9.20;58.11
38530;BME280;24301;54.332;48.386;2023-04-05T02:05:57;98981.63;;;9.16;58.17
38530;BME280;24301;54.332;48.386;2023-04-05T02:08:23;98990.31;;;9.21;58.24
38530;BME280;24301;54.332;48.386;2023-04-05T02:10:52;98992.94;;;9.19;58.49
38530;BME280;24301;54.332;48.386;2023-04-05T02:13:17;98991.16;;;9.22;58.28
38530;BME280;24301;54.332;48.386;2023-04-05T02:15:50;98983.25;;;9.26;58.51
38530;BME280;24301;54.332;48.386;2023-04-05T02:18:16;98991.94;;;9.33;58.33
38530;BME280;24301;54.332;48.386;2023-04-05T02:20:50;98983.13;;;9.42;58.44
38530;BME280;24301;54.332;48.386;2023-04-05T02:23:18;98986.56;;;9.47;58.04
38530;BME280;24301;54.332;48.386;2023-04-05T02:25:44;98994.38;;;9.53;57.57
38530;BME280;24301;54.332;48.386;2023-04-05T02:28:10;98987.38;;;9.54;57.67
38530;BME280;24301;54.332;48.386;2023-04-05T02:30:36;98990.81;;;9.59;57.36
38530;BME280;24301;54.332;48.386;2023-04-05T02:33:02;98993.38;;;9.65;57.30
38530;BME280;24301;54.332;48.386;2023-04-05T02:35:28;98997.75;;;9.66;57.49
38530;BME280;24301;54.332;48.386;2023-04-05T02:37:53;98988.94;;;9.70;57.49
38530;BME280;24301;54.332;48.386;2023-04-05T02:40:21;98988.94;;;9.70;57.33
38530;BME280;24301;54.332;48.386;2023-04-05T02:42:47;98981.91;;;9.75;57.34
38530;BME280;24301;54.332;48.386;2023-04-05T02:45:13;98986.16;;;9.86;57.33
38530;BME280;24301;54.332;48.386;2023-04-05T02:47:39;98986.06;;;9.94;57.29
38530;BME280;24301;54.332;48.386;2023-04-05T02:50:05;98981.59;;;10.03;56.94
38530;BME280;24301;54.332;48.386;2023-04-05T02:52:36;98984.84;;;10.23;56.91
38530;BME280;24301;54.332;48.386;2023-04-05T02:55:06;98983.81;;;10.36;56.66
38530;BME280;24301;54.332;48.386;2023-04-05T02:57:33;98968.78;;;10.47;56.04
38530;BME280;24301;54.332;48.386;2023-04-05T03:00:06;98977.16;;;10.73;56.01
38530;BME280;24301;54.332;48.386;2023-04-05T03:02:33;98975.91;;;10.97;55.45
38530;BME280;24301;54.332;48.386;2023-04-05T03:05:01;98970.25;;;11.22;54.62
38530;BME280;24301;54.332;48.386;2023-04-05T03:07:29;98967.31;;;11.39;54.16
38530;BME280;24301;54.332;48.386;2023-04-05T03:09:58;98972.25;;;11.58;53.73
38530;BME280;24301;54.332;48.386;2023-04-05T03:12:25;98970.03;;;11.82;53.15
38530;BME280;24301;54.332;48.386;2023-04-05T03:14:52;98976.31;;;12.20;52.92
38530;BME280;24301;54.332;48.386;2023-04-05T03:17:21;98966.47;;;12.69;52.00
38530;BME280;24301;54.332;48.386;2023-04-05T03:19:57;98962.09;;;13.04;50.47
38530;BME280;24301;54.332;48.386;2023-04-05T03:22:25;98966.47;;;13.40;49.53
38530;BME280;24301;54.332;48.386;2023-04-05T03:24:53;98962.38;;;13.63;48.74
38530;BME280;24301;54.332;48.386;2023-04-05T03:27:22;98969.13;;;14.05;48.15
38530;BME280;24301;54.332;48.386;2023-04-05T03:30:05;98968.06;;;14.42;47.33
38530;BME280;24301;54.332;48.386;2023-04-05T03:32:36;98973.75;;;14.87;46.50
38530;BME280;24301;54.332;48.386;2023-04-05T03:35:22;98971.47;;;15.30;45.31
38530;BME280;24301;54.332;48.386;2023-04-05T03:37:47;98974.72;;;15.63;44.56
38530;BME280;24301;54.332;48.386;2023-04-05T03:40:15;98980.81;;;15.92;43.95
38530;BME280;24301;54.332;48.386;2023-04-05T03:42:40;98977.66;;;16.30;43.22
38530;BME280;24301;54.332;48.386;2023-04-05T03:45:07;98976.97;;;16.71;42.26
38530;BME280;24301;54.332;48.386;2023-04-05T03:47:33;98975.44;;;17.10;41.25
38530;BME280;24301;54.332;48.386;2023-04-05T03:50:03;98984.22;;;17.53;40.54
38530;BME280;24301;54.332;48.386;2023-04-05T03:52:30;98990.16;;;18.00;39.60
38530;BME280;24301;54.332;48.386;2023-04-05T03:54:56;98987.94;;;18.31;38.65
38530;BME280;24301;54.332;48.386;2023-04-05T03:57:26;98993.41;;;18.47;37.80
38530;BME280;24301;54.332;48.386;2023-04-05T04:00:00;98988.44;;;18.77;37.86
38530;BME280;24301;54.332;48.386;2023-04-05T04:02:29;98982.09;;;18.99;37.28
38530;BME280;24301;54.332;48.386;2023-04-05T04:04:55;98983.44;;;19.26;36.91
38530;BME280;24301;54.332;48.386;2023-04-05T04:07:22;98982.13;;;19.52;36.47
38530;BME280;24301;54.332;48.386;2023-04-05T04:09:47;98975.59;;;19.93;35.92
38530;BME280;24301;54.332;48.386;2023-04-05T04:12:14;98983.00;;;20.21;35.24
38530;BME280;24301;54.332;48.386;2023-04-05T04:14:49;98970.44;;;20.72;34.61
38530;BME280;24301;54.332;48.386;2023-04-05T04:17:35;98972.19;;;21.66;33.67
38530;BME280;24301;54.332;48.386;2023-04-05T04:20:31;98972.84;;;22.42;32.90
38530;BME280;24301;54.332;48.386;2023-04-05T04:23:12;98980.97;;;22.70;31.77
38530;BME280;24301;54.332;48.386;2023-04-05T04:25:59;98979.75;;;23.16;31.45
38530;BME280;24301;54.332;48.386;2023-04-05T04:29:01;98979.66;;;23.96;30.63
38530;BME280;24301;54.332;48.386;2023-04-05T04:32:03;98983.00;;;24.89;29.50
38530;BME280;24301;54.332;48.386;2023-04-05T04:34:59;98976.47;;;25.88;28.55
38530;BME280;24301;54.332;48.386;2023-04-05T04:38:00;98988.63;;;26.50;26.78
38530;BME280;24301;54.332;48.386;2023-04-05T04:40:45;98984.00;;;27.08;26.90
38530;BME280;24301;54.332;48.386;2023-04-05T04:43:20;98983.03;;;27.63;25.75
38530;BME280;24301;54.332;48.386;2023-04-05T04:46:20;98988.25;;;28.28;24.91
38530;BME280;24301;54.332;48.386;2023-04-05T04:49:08;98991.81;;;28.70;24.35
38530;BME280;24301;54.332;48.386;2023-04-05T04:51:36;98996.44;;;28.99;23.77
38530;BME280;24301;54.332;48.386;2023-04-05T04:54:02;98988.78;;;29.23;23.21
38530;BME280;24301;54.332;48.386;2023-04-05T04:56:28;98989.75;;;29.62;22.98
38530;BME280;24301;54.332;48.386;2023-04-05T04:58:56;98999.50;;;30.22;22.17
38530;BME280;24301;54.332;48.386;2023-04-05T05:01:22;98999.31;;;30.61;21.55
38530;BME280;24301;54.332;48.386;2023-04-05T05:03:50;99001.41;;;30.95;21.16
38530;BME280;24301;54.332;48.386;2023-04-05T05:06:23;98999.44;;;31.34;20.92
38530;BME280;24301;54.332;48.386;2023-04-05T05:08:49;98990.53;;;31.68;20.45
38530;BME280;24301;54.332;48.386;2023-04-05T05:11:15;99000.38;;;32.14;19.61
38530;BME280;24301;54.332;48.386;2023-04-05T05:13:41;99006.94;;;32.72;19.11
38530;BME280;24301;54.332;48.386;2023-04-05T05:16:09;98999.25;;;33.19;18.73
38530;BME280;24301;54.332;48.386;2023-04-05T05:18:35;98999.31;;;33.52;18.71
38530;BME280;24301;54.332;48.386;2023-04-05T05:21:01;98996.38;;;33.70;17.98
38530;BME280;24301;54.332;48.386;2023-04-05T05:23:27;98994.38;;;33.56;18.12
38530;BME280;24301;54.332;48.386;2023-04-05T05:25:57;98996.72;;;33.34;18.10
38530;BME280;24301;54.332;48.386;2023-04-05T05:28:25;99000.44;;;33.00;18.66
38530;BME280;24301;54.332;48.386;2023-04-05T05:30:51;98999.41;;;33.01;18.48
38530;BME280;24301;54.332;48.386;2023-04-05T05:33:17;98996.03;;;33.23;18.28
38530;BME280;24301;54.332;48.386;2023-04-05T05:35:47;99003.38;;;33.56;17.50
38530;BME280;24301;54.332;48.386;2023-04-05T05:38:13;99003.16;;;34.16;17.44
38530;BME280;24301;54.332;48.386;2023-04-05T05:40:39;99005.00;;;34.72;17.08
38530;BME280;24301;54.332;48.386;2023-04-05T05:43:05;99011.84;;;35.31;16.43
38530;BME280;24301;54.332;48.386;2023-04-05T05:45:31;99015.00;;;35.66;16.30
38530;BME280;24301;54.332;48.386;2023-04-05T05:47:57;99013.53;;;35.78;16.30
38530;BME280;24301;54.332;48.386;2023-04-05T05:50:23;99012.06;;;36.06;15.88
38530;BME280;24301;54.332;48.386;2023-04-05T05:52:48;99013.69;;;36.30;15.67
38530;BME280;24301;54.332;48.386;2023-04-05T05:55:15;99016.69;;;36.65;15.24
38530;BME280;24301;54.332;48.386;2023-04-05T05:57:41;99019.66;;;37.01;15.39
38530;BME280;24301;54.332;48.386;2023-04-05T06:00:07;99018.59;;;37.17;14.79
38530;BME280;24301;54.332;48.386;2023-04-05T06:02:37;99029.75;;;37.59;15.10
38530;BME280;24301;54.332;48.386;2023-04-05T06:05:03;99020.16;;;37.98;14.29
38530;BME280;24301;54.332;48.386;2023-04-05T06:07:29;99021.97;;;38.48;14.06
38530;BME280;24301;54.332;48.386;2023-04-05T06:09:55;99026.13;;;38.86;13.57
38530;BME280;24301;54.332;48.386;2023-04-05T06:12:21;99029.66;;;38.73;13.68
38530;BME280;24301;54.332;48.386;2023-04-05T06:14:47;99029.09;;;38.84;13.86
38530;BME280;24301;54.332;48.386;2023-04-05T06:17:13;99027.41;;;38.90;13.49
38530;BME280;24301;54.332;48.386;2023-04-05T06:19:38;99022.88;;;39.04;13.31
38530;BME280;24301;54.332;48.386;2023-04-05T06:22:04;99029.06;;;39.46;13.24
38530;BME280;24301;54.332;48.386;2023-04-05T06:24:30;99039.03;;;39.88;12.86
38530;BME280;24301;54.332;48.386;2023-04-05T06:26:59;99042.00;;;39.86;12.56
38530;BME280;24301;54.332;48.386;2023-04-05T06:29:25;99037.75;;;39.90;12.74
38530;BME280;24301;54.332;48.386;2023-04-05T06:31:51;99026.75;;;39.90;12.60
38530;BME280;24301;54.332;48.386;2023-04-05T06:34:17;99037.75;;;39.90;12.70
38530;BME280;24301;54.332;48.386;2023-04-05T06:36:43;99034.56;;;40.14;12.25
38530;BME280;24301;54.332;48.386;2023-04-05T06:39:09;99043.84;;;40.40;12.09
38530;BME280;24301;54.332;48.386;2023-04-05T06:41:35;99042.31;;;40.57;11.96
38530;BME280;24301;54.332;48.386;2023-04-05T06:44:01;99037.28;;;40.34;11.94
38530;BME280;24301;54.332;48.386;2023-04-05T06:46:27;99040.22;;;40.39;11.64
38530;BME280;24301;54.332;48.386;2023-04-05T06:48:53;99034.28;;;40.56;11.47
38530;BME280;24301;54.332;48.386;2023-04-05T06:51:19;99027.59;;;40.31;11.87
38530;BME280;24301;54.332;48.386;2023-04-05T06:53:45;99033.50;;;40.28;11.65
38530;BME280;24301;54.332;48.386;2023-04-05T06:56:11;99032.69;;;40.07;11.69
38530;BME280;24301;54.332;48.386;2023-04-05T06:58:37;99029.91;;;40.21;11.68
38530;BME280;24301;54.332;48.386;2023-04-05T07:01:03;99035.63;;;40.19;11.69
38530;BME280;24301;54.332;48.386;2023-04-05T07:03:29;99027.34;;;40.40;11.18
38530;BME280;24301;54.332;48.386;2023-04-05T07:05:58;99028.88;;;39.95;11.47
38530;BME280;24301;54.332;48.386;2023-04-05T07:08:26;99043.28;;;39.84;11.57
38530;BME280;24301;54.332;48.386;2023-04-05T07:10:52;99038.16;;;40.21;11.58
38530;BME280;24301;54.332;48.386;2023-04-05T07:13:22;99035.16;;;40.49;11.20
38530;BME280;24301;54.332;48.386;2023-04-05T07:15:48;99038.94;;;40.55;11.27
38530;BME280;24301;54.332;48.386;2023-04-05T07:18:16;99035.78;;;40.45;11.43
38530;BME280;24301;54.332;48.386;2023-04-05T07:20:43;99033.16;;;40.77;10.86
38530;BME280;24301;54.332;48.386;2023-04-05T07:23:09;99028.94;;;40.68;11.02
38530;BME280;24301;54.332;48.386;2023-04-05T07:25:35;99032.03;;;40.32;11.40
38530;BME280;24301;54.332;48.386;2023-04-05T07:28:00;99039.88;;;40.08;11.53
38530;BME280;24301;54.332;48.386;2023-04-05T07:30:26;99039.22;;;39.66;11.53
38530;BME280;24301;54.332;48.386;2023-04-05T07:32:53;99034.56;;;38.77;11.79
38530;BME280;24301;54.332;48.386;2023-04-05T07:35:19;99028.03;;;37.79;12.88
38530;BME280;24301;54.332;48.386;2023-04-05T07:37:45;99022.88;;;37.26;12.88
38530;BME280;24301;54.332;48.386;2023-04-05T07:40:11;99018.97;;;36.99;13.41
38530;BME280;24301;54.332;48.386;2023-04-05T07:42:38;99022.34;;;36.79;13.57
38530;BME280;24301;54.332;48.386;2023-04-05T07:45:05;99017.91;;;36.33;13.73
38530;BME280;24301;54.332;48.386;2023-04-05T07:47:32;99022.72;;;36.16;13.84
38530;BME280;24301;54.332;48.386;2023-04-05T07:49:59;99003.47;;;35.56;14.37
38530;BME280;24301;54.332;48.386;2023-04-05T07:52:25;99004.38;;;35.24;14.57
38530;BME280;24301;54.332;48.386;2023-04-05T07:54:51;99012.44;;;35.41;14.39
38530;BME280;24301;54.332;48.386;2023-04-05T07:57:18;99012.53;;;35.01;14.72
38530;BME280;24301;54.332;48.386;2023-04-05T07:59:44;98999.28;;;34.58;14.97
38530;BME280;24301;54.332;48.386;2023-04-05T08:02:10;99004.94;;;34.48;15.10
38530;BME280;24301;54.332;48.386;2023-04-05T08:04:36;98999.59;;;34.15;15.35
38530;BME280;24301;54.332;48.386;2023-04-05T08:07:02;98999.13;;;33.78;15.62
38530;BME280;24301;54.332;48.386;2023-04-05T08:09:28;98986.53;;;33.28;15.71
38530;BME280;24301;54.332;48.386;2023-04-05T08:11:54;98990.66;;;32.37;16.24
38530;BME280;24301;54.332;48.386;2023-04-05T08:14:22;98995.63;;;31.08;17.27
38530;BME280;24301;54.332;48.386;2023-04-05T08:16:48;98980.53;;;29.54;18.44
38530;BME280;24301;54.332;48.386;2023-04-05T08:19:15;98988.03;;;28.41;19.54
38530;BME280;24301;54.332;48.386;2023-04-05T08:21:41;98979.69;;;27.38;20.25
38530;BME280;24301;54.332;48.386;2023-04-05T08:24:07;98979.19;;;26.56;21.22
38530;BME280;24301;54.332;48.386;2023-04-05T08:26:33;98973.88;;;25.75;22.11
38530;BME280;24301;54.332;48.386;2023-04-05T08:28:59;98957.38;;;24.96;22.77
38530;BME280;24301;54.332;48.386;2023-04-05T08:31:25;98965.19;;;24.62;23.25
38530;BME280;24301;54.332;48.386;2023-04-05T08:33:51;98959.69;;;24.39;23.53
38530;BME280;24301;54.332;48.386;2023-04-05T08:36:17;98959.28;;;24.20;23.98
38530;BME280;24301;54.332;48.386;2023-04-05T08:38:42;98960.59;;;24.01;24.34
38530;BME280;24301;54.332;48.386;2023-04-05T08:41:18;98962.06;;;23.92;24.57
38530;BME280;24301;54.332;48.386;2023-04-05T08:44:02;98960.47;;;23.90;24.25
38530;BME280;24301;54.332;48.386;2023-04-05T08:46:33;98962.28;;;23.76;24.72
38530;BME280;24301;54.332;48.386;2023-04-05T08:49:04;98956.25;;;23.60;24.99
38530;BME280;24301;54.332;48.386;2023-04-05T08:51:30;98949.06;;;23.34;25.40
38530;BME280;24301;54.332;48.386;2023-04-05T08:53:58;98956.03;;;23.37;25.43
38530;BME280;24301;54.332;48.386;2023-04-05T08:56:27;98956.56;;;23.29;25.30
38530;BME280;24301;54.332;48.386;2023-04-05T08:59:01;98957.16;;;22.92;25.85
38530;BME280;24301;54.332;48.386;2023-04-05T09:01:29;98963.06;;;22.70;26.30
38530;BME280;24301;54.332;48.386;2023-04-05T09:03:58;98964.16;;;22.38;27.04
38530;BME280;24301;54.332;48.386;2023-04-05T09:06:24;98964.38;;;22.21;27.24
38530;BME280;24301;54.332;48.386;2023-04-05T09:08:55;98959.31;;;22.02;27.51
38530;BME280;24301;54.332;48.386;2023-04-05T09:11:21;98948.78;;;21.70;27.95
38530;BME280;24301;54.332;48.386;2023-04-05T09:13:48;98952.44;;;21.38;28.42
38530;BME280;24301;54.332;48.386;2023-04-05T09:16:17;98950.25;;;21.14;28.80
38530;BME280;24301;54.332;48.386;2023-04-05T09:18:44;98948.06;;;20.74;29.62
38530;BME280;24301;54.332;48.386;2023-04-05T09:21:10;98951.84;;;20.54;29.98
38530;BME280;24301;54.332;48.386;2023-04-05T09:23:36;98952.78;;;20.53;29.55
38530;BME280;24301;54.332;48.386;2023-04-05T09:26:22;98938.66;;;20.51;29.71
38530;BME280;24301;54.332;48.386;2023-04-05T09:28:51;98944.78;;;20.53;29.79
38530;BME280;24301;54.332;48.386;2023-04-05T09:31:36;98945.47;;;20.73;29.82
38530;BME280;24301;54.332;48.386;2023-04-05T09:34:07;98939.34;;;20.71;29.37
38530;BME280;24301;54.332;48.386;2023-04-05T09:36:34;98938.78;;;20.81;29.00
38530;BME280;24301;54.332;48.386;2023-04-05T09:39:07;98945.06;;;20.64;29.09
38530;BME280;24301;54.332;48.386;2023-04-05T09:41:34;98934.97;;;20.37;29.03
38530;BME280;24301;54.332;48.386;2023-04-05T09:44:01;98944.06;;;20.17;29.72
38530;BME280;24301;54.332;48.386;2023-04-05T09:46:34;98930.56;;;20.20;29.43
38530;BME280;24301;54.332;48.386;2023-04-05T09:49:03;98930.25;;;20.27;29.52
38530;BME280;24301;54.332;48.386;2023-04-05T09:51:38;98946.06;;;20.14;29.73
38530;BME280;24301;54.332;48.386;2023-04-05T09:54:09;98940.03;;;20.10;30.06
38530;BME280;24301;54.332;48.386;2023-04-05T09:56:37;98935.22;;;19.83;30.32
38530;BME280;24301;54.332;48.386;2023-04-05T09:59:10;98933.44;;;19.66;30.79
38530;BME280;24301;54.332;48.386;2023-04-05T10:01:38;98935.34;;;19.64;30.91
38530;BME280;24301;54.332;48.386;2023-04-05T10:04:08;98929.13;;;19.63;31.08
38530;BME280;24301;54.332;48.386;2023-04-05T10:09:02;98933.59;;;19.63;31.25
38530;BME280;24301;54.332;48.386;2023-04-05T10:11:29;98930.94;;;19.63;30.93
38530;BME280;24301;54.332;48.386;2023-04-05T10:13:59;98933.47;;;19.31;31.44
38530;BME280;24301;54.332;48.386;2023-04-05T10:16:29;98937.78;;;19.33;31.40
38530;BME280;24301;54.332;48.386;2023-04-05T10:18:57;98924.22;;;19.38;30.80
38530;BME280;24301;54.332;48.386;2023-04-05T10:21:27;98938.16;;;19.26;31.22
38530;BME280;24301;54.332;48.386;2023-04-05T10:27:30;98942.00;;;19.37;31.45
38530;BME280;24301;54.332;48.386;2023-04-05T10:30:07;98935.56;;;19.42;31.62
38530;BME280;24301;54.332;48.386;2023-04-05T10:38:27;98939.88;;;19.62;31.08
38530;BME280;24301;54.332;48.386;2023-04-05T10:41:19;98932.69;;;19.46;31.77
38530;BME280;24301;54.332;48.386;2023-04-05T10:43:45;98933.56;;;19.47;31.25
38530;BME280;24301;54.332;48.386;2023-04-05T10:46:10;98933.84;;;19.41;31.34
38530;BME280;24301;54.332;48.386;2023-04-05T10:51:15;98918.50;;;19.28;31.13
38530;BME280;24301;54.332;48.386;2023-04-05T10:53:42;98934.34;;;19.49;31.11
38530;BME280;24301;54.332;48.386;2023-04-05T10:56:08;98932.69;;;19.46;31.09
38530;BME280;24301;54.332;48.386;2023-04-05T10:58:37;98918.28;;;19.33;31.13
38530;BME280;24301;54.332;48.386;2023-04-05T11:01:05;98937.00;;;19.31;31.08
38530;BME280;24301;54.332;48.386;2023-04-05T11:06:23;98934.72;;;19.59;30.81
38530;BME280;24301;54.332;48.386;2023-04-05T11:09:06;98934.94;;;19.54;30.81
38530;BME280;24301;54.332;48.386;2023-04-05T11:11:41;98931.38;;;19.71;30.92
38530;BME280;24301;54.332;48.386;2023-04-05T11:16:49;98921.63;;;19.54;30.60
38530;BME280;24301;54.332;48.386;2023-04-05T11:19:17;98930.63;;;19.51;30.79
38530;BME280;24301;54.332;48.386;2023-04-05T11:21:43;98927.19;;;19.49;30.54
38530;BME280;24301;54.332;48.386;2023-04-05T11:24:11;98933.63;;;19.45;30.57
38530;BME280;24301;54.332;48.386;2023-04-05T11:29:06;98913.00;;;19.49;30.41
38530;BME280;24301;54.332;48.386;2023-04-05T11:31:32;98917.31;;;19.51;30.26
38530;BME280;24301;54.332;48.386;2023-04-05T11:34:05;98925.78;;;19.60;30.17
38530;BME280;24301;54.332;48.386;2023-04-05T11:36:41;98912.16;;;19.31;30.20
38530;BME280;24301;54.332;48.386;2023-04-05T11:41:58;98913.56;;;19.03;30.63
38530;BME280;24301;54.332;48.386;2023-04-05T11:44:25;98917.72;;;18.72;30.95
38530;BME280;24301;54.332;48.386;2023-04-05T11:46:54;98920.75;;;18.64;31.31
38530;BME280;24301;54.332;48.386;2023-04-05T11:49:21;98905.16;;;18.56;31.43
38530;BME280;24301;54.332;48.386;2023-04-05T11:51:52;98905.31;;;18.53;31.36
38530;BME280;24301;54.332;48.386;2023-04-05T11:54:36;98918.34;;;18.59;31.34
38530;BME280;24301;54.332;48.386;2023-04-05T11:57:04;98903.75;;;18.49;31.54
38530;BME280;24301;54.332;48.386;2023-04-05T11:59:34;98910.63;;;18.53;31.50
38530;BME280;24301;54.332;48.386;2023-04-05T12:02:02;98908.75;;;18.55;31.49
38530;BME280;24301;54.332;48.386;2023-04-05T12:04:36;98904.88;;;18.62;31.39
38530;BME280;24301;54.332;48.386;2023-04-05T12:07:15;98905.72;;;18.82;31.40
38530;BME280;24301;54.332;48.386;2023-04-05T12:09:59;98904.63;;;19.04;31.02
38530;BME280;24301;54.332;48.386;2023-04-05T12:12:26;98899.25;;;19.05;30.89
38530;BME280;24301;54.332;48.386;2023-04-05T12:14:58;98898.47;;;19.03;31.02
38530;BME280;24301;54.332;48.386;2023-04-05T12:17:49;98905.06;;;18.94;31.08
38530;BME280;24301;54.332;48.386;2023-04-05T12:20:19;98903.69;;;18.68;31.23
38530;BME280;24301;54.332;48.386;2023-04-05T12:22:47;98892.09;;;18.51;31.62
38530;BME280;24301;54.332;48.386;2023-04-05T12:25:14;98902.16;;;18.45;31.80
38530;BME280;24301;54.332;48.386;2023-04-05T12:27:40;98903.44;;;18.55;31.75
38530;BME280;24301;54.332;48.386;2023-04-05T12:30:12;98883.28;;;18.69;31.62
38530;BME280;24301;54.332;48.386;2023-04-05T12:32:50;98889.78;;;18.80;31.63
38530;BME280;24301;54.332;48.386;2023-04-05T12:35:27;98903.31;;;18.58;31.42
38530;BME280;24301;54.332;48.386;2023-04-05T12:38:03;98902.09;;;18.27;31.85
38530;BME280;24301;54.332;48.386;2023-04-05T12:40:32;98900.03;;;18.15;32.24
38530;BME280;24301;54.332;48.386;2023-04-05T12:43:04;98905.75;;;18.05;32.33
38530;BME280;24301;54.332;48.386;2023-04-05T12:45:30;98892.53;;;17.85;32.52
38530;BME280;24301;54.332;48.386;2023-04-05T12:48:07;98902.13;;;17.68;32.77
38530;BME280;24301;54.332;48.386;2023-04-05T12:50:34;98900.81;;;17.58;32.98
38530;BME280;24301;54.332;48.386;2023-04-05T12:53:04;98900.25;;;17.70;33.13
38530;BME280;24301;54.332;48.386;2023-04-05T12:55:31;98903.41;;;17.78;32.91
38530;BME280;24301;54.332;48.386;2023-04-05T12:58:00;98908.47;;;17.85;32.69
38530;BME280;24301;54.332;48.386;2023-04-05T13:00:28;98907.31;;;17.90;32.92
38530;BME280;24301;54.332;48.386;2023-04-05T13:02:56;98906.91;;;18.00;32.85
38530;BME280;24301;54.332;48.386;2023-04-05T13:05:26;98903.78;;;18.11;32.54
38530;BME280;24301;54.332;48.386;2023-04-05T13:07:52;98900.69;;;18.20;32.52
38530;BME280;24301;54.332;48.386;2023-04-05T13:10:20;98897.44;;;18.32;32.51
38530;BME280;24301;54.332;48.386;2023-04-05T13:12:47;98901.16;;;18.47;32.22
38530;BME280;24301;54.332;48.386;2023-04-05T13:15:16;98902.75;;;18.51;32.13
38530;BME280;24301;54.332;48.386;2023-04-05T13:17:48;98892.25;;;18.48;32.04
38530;BME280;24301;54.332;48.386;2023-04-05T13:20:18;98893.41;;;18.43;32.20
38530;BME280;24301;54.332;48.386;2023-04-05T13:22:44;98897.72;;;18.26;32.28
38530;BME280;24301;54.332;48.386;2023-04-05T13:25:10;98897.25;;;17.97;32.50
38530;BME280;24301;54.332;48.386;2023-04-05T13:27:38;98894.50;;;17.79;32.65
38530;BME280;24301;54.332;48.386;2023-04-05T13:30:04;98896.75;;;17.70;33.05
38530;BME280;24301;54.332;48.386;2023-04-05T13:32:36;98897.38;;;17.56;33.19
38530;BME280;24301;54.332;48.386;2023-04-05T13:35:02;98885.28;;;17.48;33.35